Terminal Aerodrome Forecast
Issued by NWS

Home | Current Version | Previous Version | Text Only | Print | Product List | Glossary On
Versions: 1 2 3 4 5 6 7 8 9 10 11 12 13 14 15 16
000
FTUS46 KSEW 221700
TAFBLI
TAF
KBLI 221738Z 2218/2318 17013KT P6SM SCT009 SCT060
      TEMPO 2218/2220 BKN009 BKN060
     FM222000 17013KT P6SM SCT060 SCT110
      TEMPO 2222/2302 BKN060 BKN110
     FM230200 17008KT P6SM SCT060 BKN110
     FM230900 17008KT P6SM FEW025 SCT060 BKN110
     FM231100 17008KT P6SM OVC018=

USA.gov is the U.S. government's official web portal to all federal, state and local government web resources and services.